Airfield :
LOGIN :

Register | Disclaimer

   EN    FR    IT 

 










Legend :    VFR   Marginal VFR   IFR   Intensive IFR   Very Intensive IFR
Visi :
Ceiling :
>= 8 km
>= 3000ft
5 to 8 km
1000 to 3000 ft
1500m to 5 km
500 to 1000 ft
800 to 1500m
200 to 500 ft
< 800m
< 200 ft
Symbols :   Thunderstorms  Fog  Heavy snow  Heavy precipitations  Wind > 20 kt
SIGMETs :     Misc.  Thunderstorms  Icing  Turbulence  Mountain Waves  Volcanic Ashes






- Airport Elevation : 1504 ft
- IATA code : PNA


LEPP - Noain Pamplona

CURRENT METAR :
  • 301300Z 07002KT CAVOK 18/10 Q1026

EXPIRED METARs :
  • 301230Z 03001KT CAVOK 17/10 Q1026
  • 301200Z 03001KT CAVOK 16/10 Q1026
  • 301130Z 12001KT CAVOK 15/09 Q1027
  • 301100Z 05001KT CAVOK 14/10 Q1027
  • 301030Z 01001KT CAVOK 13/09 Q1027

TAF TAF LEPP
Valid from the 30 at 09:00 until the 31 at 09:00 UTC


300800Z 3009/3109 VRB05KT CAVOK TX20/3015Z TN05/3009Z
PROB30
TEMPO 3009/3010 0800 BCFG BKN005



MET'MAP, your aeronautical weather chart ! - Copyright ORBIFLY December 2007 - Disclaimer

ORBIFLY MET'MAP TEAM :

Programming & Development : Alexandra Zaïnal
Concept & original design : Baudouin d'Aumeries
Assistance for programming : Marc-Olivier Méhu
Technical & hardware support : Manuel Goepfert

Contact : metmap@orbifly.com




SOURCES & CREDITS :

   NOAA